createdAt,value
2024-03-08T00:02:41.506Z,129.20
2024-03-08T00:07:45.978Z,120.30
2024-03-08T00:12:50.370Z,99.30
2024-03-08T00:17:55.860Z,102.40
2024-03-08T00:23:00.487Z,104.90
2024-03-08T00:28:06.768Z,108.90
2024-03-08T00:33:10.902Z,112.20
2024-03-08T00:38:14.836Z,99.80
2024-03-08T00:43:19.280Z,105.90
2024-03-08T00:48:23.967Z,102.40
2024-03-08T00:53:28.812Z,96.50
2024-03-08T00:58:33.232Z,93.00
2024-03-08T01:03:38.038Z,91.90
2024-03-08T01:08:44.095Z,115.20
2024-03-08T01:13:50.006Z,100.60
2024-03-08T01:18:53.870Z,119.20
2024-03-08T01:23:59.235Z,103.60
2024-03-08T01:29:06.720Z,114.60
2024-03-08T01:34:10.635Z,106.60
2024-03-08T01:39:15.376Z,100.20
2024-03-08T01:44:19.743Z,88.30
2024-03-08T01:49:26.892Z,87.30
2024-03-08T01:54:31.978Z,93.20
2024-03-08T01:59:36.158Z,96.00
2024-03-08T02:04:41.139Z,94.90
2024-03-08T02:09:45.332Z,99.10
2024-03-08T02:14:50.411Z,97.20
2024-03-08T02:19:57.690Z,92.70
2024-03-08T02:25:05.143Z,77.40
2024-03-08T02:30:10.707Z,94.10
2024-03-08T02:35:15.016Z,79.30
2024-03-08T02:40:19.694Z,85.80
2024-03-08T02:45:24.270Z,111.50
2024-03-08T02:50:29.025Z,118.20
2024-03-08T02:55:35.051Z,101.10
2024-03-08T03:00:47.997Z,101.50
2024-03-08T03:06:03.550Z,106.80
2024-03-08T03:11:09.058Z,101.30
2024-03-08T03:16:19.885Z,99.50
2024-03-08T03:21:24.147Z,86.60
2024-03-08T03:26:28.981Z,85.30
2024-03-08T03:31:32.984Z,75.60
2024-03-08T03:36:39.784Z,81.50
2024-03-08T03:41:47.870Z,93.60
2024-03-08T03:46:55.264Z,89.40
2024-03-08T03:57:04.847Z,81.40
2024-03-08T04:02:09.773Z,98.70
2024-03-08T04:07:14.557Z,95.00
2024-03-08T04:12:19.374Z,87.70
2024-03-08T04:17:26.033Z,98.90
2024-03-08T04:22:30.646Z,94.60
2024-03-08T04:27:35.989Z,87.30
2024-03-08T04:32:40.381Z,91.90
2024-03-08T04:37:44.054Z,87.40
2024-03-08T04:42:48.050Z,96.10
2024-03-08T04:47:53.429Z,96.90
2024-03-08T04:52:57.259Z,91.30
2024-03-08T04:58:01.791Z,85.30
2024-03-08T05:03:06.750Z,89.40
2024-03-08T05:08:11.300Z,88.90
2024-03-08T05:13:15.838Z,82.40
2024-03-08T05:18:20.419Z,71.40
2024-03-08T05:23:23.943Z,82.00
2024-03-08T05:28:28.155Z,87.50
2024-03-08T05:33:32.097Z,90.20
2024-03-08T05:38:36.108Z,86.60
2024-03-08T05:43:42.496Z,88.50
2024-03-08T05:48:48.344Z,85.90
2024-03-08T05:53:55.299Z,77.30
2024-03-08T05:59:02.451Z,82.30
2024-03-08T06:09:15.831Z,77.70
2024-03-08T06:14:20.523Z,85.20
2024-03-08T06:19:24.919Z,98.40
2024-03-08T06:24:29.103Z,100.90
2024-03-08T06:29:33.359Z,89.60
2024-03-08T06:34:37.997Z,91.10
2024-03-08T06:39:42.251Z,95.70
2024-03-08T06:44:51.549Z,90.80
2024-03-08T06:49:55.976Z,93.80
2024-03-08T06:55:03.247Z,98.40
2024-03-08T07:05:16.798Z,88.40
2024-03-08T07:10:20.883Z,93.00
2024-03-08T07:15:25.953Z,84.00
2024-03-08T07:20:30.518Z,86.00
2024-03-08T07:25:34.996Z,69.30
2024-03-08T07:30:45.825Z,66.10
2024-03-08T07:35:51.927Z,45.30
2024-03-08T07:40:58.751Z,34.80
2024-03-08T07:46:03.329Z,31.90
2024-03-08T07:51:08.093Z,25.70
2024-03-08T07:56:15.053Z,33.40
2024-03-08T08:01:20.412Z,27.10
2024-03-08T08:06:25.032Z,25.00
2024-03-08T08:11:30.696Z,27.10
2024-03-08T08:16:34.837Z,30.30
2024-03-08T08:21:39.201Z,26.90
2024-03-08T08:26:43.395Z,28.90
2024-03-08T08:31:48.302Z,25.30
2024-03-08T08:36:52.836Z,30.00
2024-03-08T08:41:57.789Z,25.50
2024-03-08T08:47:09.907Z,26.30
2024-03-08T08:52:18.581Z,24.50
2024-03-08T08:57:22.637Z,23.90
2024-03-08T09:02:27.507Z,27.80
2024-03-08T09:07:31.464Z,26.30
2024-03-08T09:12:35.637Z,30.30
2024-03-08T09:17:43.343Z,30.10
2024-03-08T09:22:47.865Z,31.80
2024-03-08T09:27:52.431Z,28.20
2024-03-08T09:32:58.591Z,28.70
2024-03-08T09:38:04.862Z,34.30
2024-03-08T09:43:09.916Z,25.40
2024-03-08T09:48:14.368Z,26.70
2024-03-08T09:53:19.238Z,20.90
2024-03-08T09:58:33.129Z,31.20
2024-03-08T10:03:37.588Z,26.20
2024-03-08T10:08:42.850Z,19.50
2024-03-08T10:18:55.290Z,22.30
2024-03-08T10:24:00.626Z,28.20
2024-03-08T10:29:06.111Z,19.20
2024-03-08T10:34:11.032Z,32.50
2024-03-08T10:39:26.370Z,24.20
2024-03-08T10:44:52.700Z,28.40
2024-03-08T10:50:05.899Z,21.80
2024-03-08T10:55:14.259Z,15.10
2024-03-08T11:00:20.156Z,10.80
2024-03-08T11:05:43.571Z,19.20
2024-03-08T11:10:56.074Z,17.90
2024-03-08T11:16:02.092Z,10.90
2024-03-08T11:21:14.665Z,7.00
2024-03-08T11:26:25.481Z,12.70
2024-03-08T11:31:30.606Z,12.60
2024-03-08T11:36:38.790Z,12.10
2024-03-08T11:41:47.348Z,10.80
2024-03-08T11:46:51.835Z,13.30
2024-03-08T11:51:58.552Z,11.00
2024-03-08T11:57:02.964Z,10.90
2024-03-08T12:02:08.415Z,16.50
2024-03-08T12:07:14.750Z,12.40
2024-03-08T12:12:19.369Z,8.70
2024-03-08T12:17:25.728Z,9.10
2024-03-08T12:22:33.069Z,13.90
2024-03-08T12:27:38.378Z,17.20
2024-03-08T12:32:48.637Z,20.50
2024-03-08T12:37:55.207Z,15.40
2024-03-08T12:43:04.412Z,15.90
2024-03-08T12:48:18.194Z,10.40
2024-03-08T12:53:22.771Z,10.20
2024-03-08T12:58:27.861Z,14.20
2024-03-08T13:03:33.386Z,15.40
2024-03-08T13:08:43.566Z,11.10
2024-03-08T13:13:47.523Z,12.10
2024-03-08T13:18:54.643Z,15.10
2024-03-08T13:24:01.985Z,16.70
2024-03-08T13:29:08.133Z,11.20
2024-03-08T13:34:13.068Z,14.80
2024-03-08T13:39:17.712Z,15.80
2024-03-08T13:44:22.143Z,14.30
2024-03-08T13:49:27.968Z,10.70
2024-03-08T13:54:32.850Z,10.20
2024-03-08T13:59:37.006Z,12.70
2024-03-08T14:04:43.696Z,11.40
2024-03-08T14:09:48.459Z,15.40
2024-03-08T14:14:53.494Z,14.70
2024-03-08T14:19:58.428Z,18.30
2024-03-08T14:25:06.176Z,12.30
2024-03-08T14:30:11.830Z,12.70
2024-03-08T14:35:16.139Z,12.60
2024-03-08T14:40:27.812Z,10.50
2024-03-08T14:45:32.189Z,13.20
2024-03-08T14:50:38.325Z,15.60
2024-03-08T14:55:41.971Z,15.70
2024-03-08T15:00:47.136Z,14.60
2024-03-08T15:05:51.859Z,12.40
2024-03-08T15:10:56.123Z,13.60
2024-03-08T15:16:00.518Z,14.40
2024-03-08T15:21:07.980Z,15.60
2024-03-08T15:26:11.962Z,12.80
2024-03-08T15:31:16.269Z,14.10
2024-03-08T15:36:22.702Z,13.90
2024-03-08T15:41:28.263Z,19.00
2024-03-08T15:46:32.166Z,19.10
2024-03-08T15:51:40.256Z,16.70
2024-03-08T15:56:47.625Z,16.20
2024-03-08T16:01:53.426Z,20.30
2024-03-08T16:07:03.556Z,18.60
2024-03-08T16:12:14.350Z,20.40
2024-03-08T16:17:20.235Z,19.70
2024-03-08T16:22:26.934Z,20.80
2024-03-08T16:27:30.867Z,21.40
2024-03-08T16:32:34.689Z,19.00
2024-03-08T16:37:53.926Z,31.60
2024-03-08T16:42:57.874Z,25.30
2024-03-08T16:48:05.081Z,18.90
2024-03-08T16:53:12.482Z,18.30
2024-03-08T17:03:20.807Z,18.70
2024-03-08T17:08:24.931Z,18.60
2024-03-08T17:13:29.522Z,22.80
2024-03-08T17:18:33.320Z,24.50
2024-03-08T17:23:38.518Z,21.30
2024-03-08T17:28:44.859Z,18.40
2024-03-08T17:33:49.124Z,19.50
2024-03-08T17:38:54.951Z,20.00
2024-03-08T17:43:59.112Z,17.80
2024-03-08T17:49:04.573Z,21.00
2024-03-08T17:54:12.574Z,21.50
2024-03-08T17:59:16.700Z,40.90
2024-03-08T18:04:23.965Z,40.20
2024-03-08T18:09:28.129Z,48.70
2024-03-08T18:14:32.472Z,65.30
2024-03-08T18:19:38.070Z,50.30
2024-03-08T18:24:44.107Z,56.10
2024-03-08T18:29:47.994Z,85.60
2024-03-08T18:34:52.714Z,79.70
2024-03-08T18:39:57.671Z,72.90
2024-03-08T18:45:01.592Z,62.10
2024-03-08T18:50:07.639Z,47.50
2024-03-08T18:55:17.096Z,49.20
2024-03-08T19:00:23.211Z,48.90
2024-03-08T19:05:29.974Z,47.90
2024-03-08T19:10:35.479Z,45.90
2024-03-08T19:15:39.857Z,60.90
2024-03-08T19:20:44.364Z,90.10
2024-03-08T19:25:51.688Z,44.90
2024-03-08T19:30:57.435Z,60.00
2024-03-08T19:36:01.932Z,54.00
2024-03-08T19:41:08.316Z,42.80
2024-03-08T19:46:13.346Z,38.20
2024-03-08T19:51:18.762Z,64.00
2024-03-08T19:56:24.553Z,73.10
2024-03-08T20:01:28.426Z,64.80
2024-03-08T20:06:33.725Z,125.00
2024-03-08T20:11:37.823Z,141.80
2024-03-08T20:16:41.462Z,112.40
2024-03-08T20:21:45.998Z,105.60
2024-03-08T20:26:50.512Z,127.20
2024-03-08T20:31:55.135Z,100.80
2024-03-08T20:37:02.660Z,88.70
2024-03-08T20:47:12.878Z,62.90
2024-03-08T20:52:17.767Z,77.70
2024-03-08T20:57:22.343Z,65.00
2024-03-08T21:02:26.800Z,62.40
2024-03-08T21:07:33.656Z,67.50
2024-03-08T21:12:42.240Z,80.10
2024-03-08T21:17:47.828Z,73.80
2024-03-08T21:22:52.754Z,79.20
2024-03-08T21:28:01.934Z,84.80
2024-03-08T21:33:12.650Z,66.30
2024-03-08T21:38:18.096Z,82.80
2024-03-08T21:43:23.097Z,77.40
2024-03-08T21:48:28.062Z,92.20
2024-03-08T21:53:35.513Z,95.00
2024-03-08T21:58:42.415Z,103.10
2024-03-08T22:03:46.992Z,172.70
2024-03-08T22:08:52.168Z,132.50
2024-03-08T22:13:57.439Z,114.20
2024-03-08T22:19:02.521Z,118.80
2024-03-08T22:24:06.734Z,99.30
2024-03-08T22:29:11.982Z,109.20
2024-03-08T22:34:17.369Z,97.30
2024-03-08T22:39:25.222Z,90.00
2024-03-08T22:44:29.593Z,100.40
2024-03-08T22:49:34.792Z,79.80
2024-03-08T22:54:38.848Z,103.40
2024-03-08T22:59:43.504Z,108.20
2024-03-08T23:04:48.146Z,113.90
2024-03-08T23:09:51.967Z,103.90
2024-03-08T23:14:56.569Z,95.40
2024-03-08T23:20:00.906Z,98.60
2024-03-08T23:25:11.227Z,78.00
2024-03-08T23:30:15.081Z,88.00
2024-03-08T23:35:22.789Z,82.70
2024-03-08T23:45:31.905Z,77.60
2024-03-08T23:50:38.773Z,78.50
2024-03-08T23:55:44.774Z,85.70
